Terminal Aerodrome Forecast
Issued by NWS

Home | Current Version | Previous Version | Text Only | Print | Product List | Glossary On
Versions: 1 2 3 4 5 6 7 8 9 10 11 12 13
958
FTUS45 KTFX 310537
TAFGTF
TAF
KGTF 310537Z 3106/0106 28011KT P6SM SCT120
      TEMPO 3108/3110 34015G25KT FEW080
     FM311900 26015G25KT P6SM SKC
     FM010200 29012KT P6SM SKC=

USA.gov is the U.S. government's official web portal to all federal, state and local government web resources and services.